Time;durP1;ratioP1;P1;durP2;ratioP2;P2;SDS_P1;SDS_P2;PMS_P1;PMS_P2;Temp;Humidity;BMP_temperature;BMP_pressure;BME280_temperature;BME280_humidity;BME280_pressure;Samples;Min_cycle;Max_cycle;Signal;HPM_P1;HPM_P2
2022/03/29 00:01:59;;;;;;;14.30;3.00;;;;;;;6.64;34.77;100599.83;117247;1186;22180;-59
2022/03/29 00:04:27;;;;;;;13.20;3.00;;;;;;;6.62;34.93;100600.52;117320;1185;21954;-48
2022/03/29 00:06:56;;;;;;;14.30;2.90;;;;;;;6.61;34.85;100601.04;117311;1185;23442;-47
2022/03/29 00:09:26;;;;;;;15.10;2.60;;;;;;;6.61;34.87;100595.81;117357;1185;23481;-58
2022/03/29 00:11:55;;;;;;;9.70;2.60;;;;;;;6.62;34.86;100587.27;117332;1185;21893;-47
2022/03/29 00:14:43;;;;;;;11.30;2.80;;;;;;;6.64;35.12;100587.45;117341;1185;21868;-47
2022/03/29 00:17:13;;;;;;;9.90;2.40;;;;;;;6.66;34.57;100589.20;117326;1185;23545;-46
2022/03/29 00:19:42;;;;;;;11.10;3.20;;;;;;;6.65;34.46;100584.83;117239;1186;21859;-46
2022/03/29 00:22:11;;;;;;;16.90;3.30;;;;;;;6.64;34.40;100578.55;117079;1188;21854;-46
2022/03/29 00:24:40;;;;;;;23.00;3.90;;;;;;;6.63;34.76;100575.23;117281;1186;24704;-47
2022/03/29 00:27:09;;;;;;;10.80;3.00;;;;;;;6.63;34.72;100575.06;117372;1185;22930;-47
2022/03/29 00:29:38;;;;;;;12.90;3.40;;;;;;;6.63;34.65;100575.23;117339;1185;23485;-47
2022/03/29 00:32:07;;;;;;;15.30;4.40;;;;;;;6.64;34.67;100575.06;117326;1185;21855;-58
2022/03/29 00:34:37;;;;;;;13.00;2.70;;;;;;;6.65;34.85;100566.36;117299;1185;21856;-58
2022/03/29 00:37:06;;;;;;;9.20;2.40;;;;;;;6.65;34.72;100557.46;117201;1188;22252;-58
2022/03/29 00:39:38;;;;;;;11.50;2.80;;;;;;;6.63;34.74;100552.39;117342;1185;23493;-47
2022/03/29 00:42:07;;;;;;;11.30;2.40;;;;;;;6.62;34.58;100548.04;117116;1184;21904;-48
2022/03/29 00:44:38;;;;;;;9.30;2.60;;;;;;;6.61;35.20;100540.88;117259;1186;23478;-47
2022/03/29 00:47:06;;;;;;;14.30;3.10;;;;;;;6.59;34.89;100540.52;117190;1186;23445;-50
2022/03/29 00:49:36;;;;;;;13.70;3.40;;;;;;;6.57;34.83;100534.40;117226;1186;21853;-47
2022/03/29 00:52:05;;;;;;;10.50;2.70;;;;;;;6.53;35.00;100533.67;117363;1185;21974;-47
2022/03/29 00:54:35;;;;;;;8.70;3.30;;;;;;;6.54;35.05;100528.63;117348;1186;23456;-58
2022/03/29 00:57:04;;;;;;;10.80;2.90;;;;;;;6.52;34.98;100521.82;117335;1187;21858;-47
2022/03/29 00:59:36;;;;;;;15.00;3.00;;;;;;;6.45;35.02;100516.52;117318;1185;23473;-47
2022/03/29 01:02:05;;;;;;;14.70;5.30;;;;;;;6.41;35.04;100513.55;117313;1185;23462;-58
2022/03/29 01:04:47;;;;;;;18.10;5.50;;;;;;;6.35;35.33;100512.98;117168;1186;23472;-58
2022/03/29 01:07:16;;;;;;;17.00;6.50;;;;;;;6.32;35.36;100510.52;117337;1186;23444;-47
2022/03/29 01:09:45;;;;;;;21.50;7.10;;;;;;;6.32;35.49;100513.48;117110;1188;21816;-47
2022/03/29 01:12:15;;;;;;;17.50;5.60;;;;;;;6.34;35.24;100506.70;117363;1185;21852;-58
2022/03/29 01:14:44;;;;;;;13.50;6.20;;;;;;;6.30;35.57;100506.50;117167;1188;21896;-47
2022/03/29 01:19:59;;;;;;;20.00;4.40;;;;;;;6.22;36.08;100491.45;117276;1186;22642;-47
2022/03/29 01:22:29;;;;;;;18.10;3.50;;;;;;;6.19;36.12;100487.06;117157;1185;21859;-47
2022/03/29 01:24:58;;;;;;;15.60;3.30;;;;;;;6.19;35.81;100486.35;117133;1184;21890;-47
2022/03/29 01:27:26;;;;;;;17.50;3.60;;;;;;;6.17;36.11;100483.57;117257;1186;21849;-47
2022/03/29 01:29:59;;;;;;;16.50;5.20;;;;;;;6.15;36.09;100479.20;117185;1188;23448;-47
2022/03/29 01:32:29;;;;;;;21.70;7.60;;;;;;;6.12;36.30;100479.70;117089;1188;22942;-58
2022/03/29 01:34:58;;;;;;;27.10;7.80;;;;;;;6.12;36.21;100480.75;117227;1186;24213;-47
2022/03/29 01:37:28;;;;;;;10.30;3.40;;;;;;;6.18;36.35;100471.03;117416;1185;21854;-47
2022/03/29 01:39:57;;;;;;;20.80;5.70;;;;;;;6.19;36.59;100471.90;117243;1188;21843;-55
2022/03/29 01:42:25;;;;;;;11.50;3.80;;;;;;;6.21;36.35;100473.65;117338;1185;22013;-48
2022/03/29 01:44:54;;;;;;;13.90;3.60;;;;;;;6.20;36.45;100469.47;117380;1184;24146;-47
2022/03/29 01:47:22;;;;;;;18.20;4.60;;;;;;;6.19;36.53;100470.51;117418;1185;23471;-59
2022/03/29 01:49:51;;;;;;;17.60;4.70;;;;;;;6.18;36.79;100465.80;117363;1185;24166;-47
2022/03/29 01:52:20;;;;;;;19.60;5.40;;;;;;;6.17;36.57;100463.89;117333;1185;21987;-47
2022/03/29 01:54:48;;;;;;;14.70;5.60;;;;;;;6.14;36.38;100464.91;117296;1184;22057;-58
2022/03/29 01:57:16;;;;;;;16.30;4.80;;;;;;;6.13;36.46;100465.60;117403;1185;23583;-47
2022/03/29 02:02:32;;;;;;;17.40;4.40;;;;;;;6.10;36.74;100452.52;117363;1185;23487;-47
2022/03/29 02:05:01;;;;;;;18.00;4.30;;;;;;;6.09;36.64;100453.20;117341;1185;22928;-47
2022/03/29 02:07:30;;;;;;;17.80;5.60;;;;;;;6.05;36.51;100446.73;117368;1184;23565;-59
2022/03/29 02:09:59;;;;;;;12.90;3.40;;;;;;;6.03;36.51;100443.05;117369;1185;24166;-47
2022/03/29 02:12:27;;;;;;;18.20;3.90;;;;;;;6.01;36.75;100443.20;117326;1185;23451;-48
2022/03/29 02:15:16;;;;;;;18.40;4.00;;;;;;;5.97;36.78;100447.32;117308;1185;21880;-48
2022/03/29 02:18:06;;;;;;;11.50;3.70;;;;;;;5.93;36.91;100444.18;117296;1185;21919;-57
2022/03/29 02:20:42;;;;;;;10.90;3.00;;;;;;;5.90;36.95;100436.13;117336;1185;23480;-58
2022/03/29 02:23:14;;;;;;;14.40;3.30;;;;;;;5.88;37.33;100432.09;117301;1189;23446;-59
2022/03/29 02:25:46;;;;;;;16.70;3.90;;;;;;;5.84;37.08;100429.11;117337;1185;22998;-58
2022/03/29 02:28:15;;;;;;;11.20;3.50;;;;;;;5.84;37.11;100427.55;117289;1185;21879;-59
2022/03/29 02:30:44;;;;;;;13.70;3.90;;;;;;;5.87;37.40;100426.70;117335;1185;23451;-47
2022/03/29 02:33:13;;;;;;;14.00;3.70;;;;;;;5.90;37.68;100429.15;117328;1185;24278;-58
2022/03/29 02:35:42;;;;;;;16.10;4.00;;;;;;;5.91;37.75;100424.29;117363;1185;23456;-57
2022/03/29 02:38:13;;;;;;;13.40;3.90;;;;;;;5.92;37.51;100429.36;117306;1185;23539;-58
2022/03/29 02:40:42;;;;;;;11.10;3.60;;;;;;;5.94;37.67;100428.15;117343;1189;21859;-59
2022/03/29 02:43:12;;;;;;;14.30;3.90;;;;;;;5.96;37.55;100422.42;117437;1185;21862;-48
2022/03/29 02:45:40;;;;;;;11.80;3.70;;;;;;;5.98;37.77;100425.90;117353;1185;22922;-48
2022/03/29 02:48:10;;;;;;;18.20;3.40;;;;;;;5.99;37.74;100419.45;117340;1185;21852;-48
2022/03/29 02:50:39;;;;;;;11.20;4.10;;;;;;;6.00;37.54;100419.85;117420;1186;21852;-56
2022/03/29 02:53:08;;;;;;;12.20;3.20;;;;;;;6.00;37.84;100417.76;117328;1185;23536;-59
2022/03/29 02:55:38;;;;;;;16.50;3.70;;;;;;;6.01;37.85;100417.60;117283;1186;22616;-48
2022/03/29 02:58:06;;;;;;;14.00;3.70;;;;;;;6.01;38.08;100416.73;117370;1185;24178;-48
2022/03/29 03:00:36;;;;;;;17.80;3.30;;;;;;;6.01;38.01;100407.32;117268;1185;23567;-48
2022/03/29 03:03:04;;;;;;;11.30;3.30;;;;;;;6.00;38.33;100400.16;117236;1186;23977;-48
2022/03/29 03:05:34;;;;;;;12.70;3.60;;;;;;;5.98;38.22;100397.33;117320;1186;21851;-59
2022/03/29 03:08:24;;;;;;;13.00;3.40;;;;;;;5.96;38.38;100407.44;117268;1185;21848;-60
2022/03/29 03:10:52;;;;;;;12.90;3.30;;;;;;;5.95;38.71;100404.65;117328;1182;22925;-58
2022/03/29 03:13:40;;;;;;;16.30;5.70;;;;;;;5.94;38.98;100402.19;117105;1188;23646;-48
2022/03/29 03:16:10;;;;;;;12.20;3.20;;;;;;;5.91;38.88;100400.27;117091;1188;21881;-59
2022/03/29 03:18:39;;;;;;;12.20;3.50;;;;;;;5.89;38.49;100405.98;117294;1185;21852;-60
2022/03/29 03:21:07;;;;;;;22.20;3.50;;;;;;;5.86;38.64;100408.40;117344;1185;21851;-49
2022/03/29 03:23:55;;;;;;;12.10;3.10;;;;;;;5.81;38.49;100398.27;117304;1185;22925;-59
2022/03/29 03:26:24;;;;;;;17.10;3.80;;;;;;;5.77;38.46;100403.29;117111;1187;23576;-48
2022/03/29 03:28:53;;;;;;;9.60;3.80;;;;;;;5.73;38.38;100404.82;117154;1185;21865;-59
2022/03/29 03:31:21;;;;;;;11.20;3.30;;;;;;;5.67;38.62;100401.64;117199;1185;23480;-49
2022/03/29 03:33:50;;;;;;;18.80;3.20;;;;;;;5.60;38.32;100403.84;117340;1185;23990;-48
2022/03/29 03:36:18;;;;;;;15.80;3.80;;;;;;;5.53;38.47;100401.52;117263;1185;23548;-59
2022/03/29 03:38:47;;;;;;;13.40;2.90;;;;;;;5.47;38.72;100399.22;117247;1185;23574;-48
2022/03/29 03:41:16;;;;;;;18.80;4.30;;;;;;;5.39;38.75;100399.15;117398;1185;23467;-48
2022/03/29 03:43:46;;;;;;;13.40;3.60;;;;;;;5.33;38.46;100390.39;117304;1185;23475;-59
2022/03/29 03:46:14;;;;;;;12.30;3.20;;;;;;;5.30;38.74;100386.02;117222;1186;23484;-49
2022/03/29 03:48:43;;;;;;;16.30;3.40;;;;;;;5.25;39.35;100382.14;117181;1182;23490;-60
2022/03/29 03:51:12;;;;;;;16.90;3.20;;;;;;;5.17;38.96;100374.91;117101;1182;21853;-59
2022/03/29 03:53:42;;;;;;;13.60;3.80;;;;;;;5.12;39.11;100379.22;117169;1181;21885;-48
2022/03/29 03:56:12;;;;;;;;;;;;;;;5.09;39.08;100376.05;116927;1182;21962;-49
2022/03/29 03:58:40;;;;;;;16.70;3.20;;;;;;;5.10;39.49;100375.36;117155;1182;23475;-48
2022/03/29 04:01:11;;;;;;;9.40;4.50;;;;;;;5.13;40.04;100367.74;117175;1181;21848;-48
2022/03/29 04:03:40;;;;;;;18.80;3.70;;;;;;;5.16;39.64;100364.81;117077;1187;21893;-59
2022/03/29 04:06:11;;;;;;;18.20;3.80;;;;;;;5.18;39.46;100372.15;116956;1182;21849;-48
2022/03/29 04:08:40;;;;;;;12.50;3.50;;;;;;;5.20;39.19;100373.39;117253;1182;21992;-60
2022/03/29 04:11:09;;;;;;;15.00;3.40;;;;;;;5.20;39.48;100369.20;117146;1181;22950;-48
2022/03/29 04:13:37;;;;;;;14.50;3.00;;;;;;;5.20;39.55;100365.90;117123;1186;24229;-59
2022/03/29 04:16:05;;;;;;;11.40;3.40;;;;;;;5.20;39.47;100367.64;117173;1182;21846;-59
2022/03/29 04:18:34;;;;;;;14.10;3.60;;;;;;;5.21;39.45;100366.26;117298;1182;24841;-48
2022/03/29 04:21:05;;;;;;;10.40;3.30;;;;;;;5.25;39.45;100372.04;117184;1185;24318;-48
2022/03/29 04:23:37;;;;;;;15.00;4.00;;;;;;;5.30;39.47;100370.17;117354;1185;23576;-55
2022/03/29 04:26:05;;;;;;;27.30;4.80;;;;;;;5.35;39.53;100360.64;117212;1186;23439;-60
2022/03/29 04:28:34;;;;;;;20.70;3.60;;;;;;;5.42;39.74;100355.32;117199;1186;22630;-48
2022/03/29 04:31:03;;;;;;;8.70;2.80;;;;;;;5.50;40.11;100355.02;117357;1185;23560;-49
2022/03/29 04:33:31;;;;;;;20.50;3.90;;;;;;;5.60;39.87;100355.98;117344;1185;24158;-59
2022/03/29 04:36:01;;;;;;;16.10;4.10;;;;;;;5.67;39.97;100360.20;117243;1185;23457;-60
2022/03/29 04:38:30;;;;;;;16.20;4.40;;;;;;;5.75;39.82;100356.25;117179;1182;21861;-59
2022/03/29 04:40:59;;;;;;;13.60;3.90;;;;;;;5.83;40.17;100349.69;117139;1185;23685;-60
2022/03/29 04:43:28;;;;;;;26.00;4.30;;;;;;;5.89;40.13;100342.77;117276;1182;24170;-48
2022/03/29 04:45:56;;;;;;;15.30;4.10;;;;;;;5.94;40.30;100341.41;117382;1185;23475;-60
2022/03/29 04:48:25;;;;;;;14.20;4.20;;;;;;;6.01;40.27;100340.23;117347;1185;23475;-59
2022/03/29 04:50:54;;;;;;;13.20;3.50;;;;;;;6.07;40.51;100341.34;117215;1188;22931;-48
2022/03/29 04:53:22;;;;;;;18.30;3.40;;;;;;;6.13;40.37;100335.98;117256;1183;21897;-48
2022/03/29 04:55:51;;;;;;;12.60;3.80;;;;;;;6.22;40.35;100340.37;117359;1185;22923;-48
2022/03/29 04:58:21;;;;;;;16.40;3.90;;;;;;;6.31;40.70;100335.71;117376;1185;24151;-49
2022/03/29 05:00:49;;;;;;;17.60;4.00;;;;;;;6.43;40.61;100336.80;117226;1186;21889;-48
2022/03/29 05:03:18;;;;;;;17.60;3.70;;;;;;;6.55;41.02;100336.85;117250;1186;21858;-48
2022/03/29 05:05:47;;;;;;;10.00;3.90;;;;;;;6.67;40.81;100335.48;117316;1185;22925;-58
2022/03/29 05:08:15;;;;;;;13.60;4.00;;;;;;;6.80;41.06;100335.72;117270;1185;23573;-59
2022/03/29 05:11:04;;;;;;;14.30;4.00;;;;;;;6.97;40.98;100336.61;117216;1185;21920;-49
2022/03/29 05:13:33;;;;;;;18.30;4.50;;;;;;;7.11;40.89;100335.23;117304;1186;24273;-50
2022/03/29 05:16:05;;;;;;;20.40;4.60;;;;;;;7.26;41.08;100335.25;117286;1185;24152;-59
2022/03/29 05:18:35;;;;;;;17.80;4.80;;;;;;;7.43;41.52;100338.92;117269;1185;21902;-59
2022/03/29 05:21:10;;;;;;;24.60;5.00;;;;;;;7.59;41.21;100343.45;117273;1185;23471;-48
2022/03/29 05:23:39;;;;;;;16.30;6.30;;;;;;;7.73;41.02;100339.78;117370;1185;24151;-59
2022/03/29 05:26:08;;;;;;;18.40;4.70;;;;;;;7.86;40.98;100334.00;117368;1185;21903;-58
2022/03/29 05:28:36;;;;;;;16.20;5.00;;;;;;;7.98;41.33;100329.42;117314;1185;21853;-48
2022/03/29 05:31:06;;;;;;;16.40;4.80;;;;;;;8.08;41.29;100335.35;117365;1185;21852;-59
2022/03/29 05:33:35;;;;;;;18.20;5.20;;;;;;;8.19;41.14;100335.98;117343;1185;23475;-48
2022/03/29 05:36:03;;;;;;;22.10;5.70;;;;;;;8.30;41.38;100324.77;117304;1185;23958;-48
2022/03/29 05:38:33;;;;;;;15.70;6.60;;;;;;;8.43;41.18;100322.10;117184;1181;22617;-62
2022/03/29 05:41:02;;;;;;;;;;;;;;;8.58;41.53;100323.12;117242;1182;21836;-63
2022/03/29 05:43:31;;;;;;;14.30;5.90;;;;;;;8.74;41.61;100318.14;117335;1185;23576;-48
2022/03/29 05:48:55;;;;;;;13.10;6.00;;;;;;;9.07;41.69;100315.13;117318;1185;23567;-48
2022/03/29 05:51:25;;;;;;;17.10;6.70;;;;;;;9.20;41.40;100319.76;117295;1185;23579;-63
2022/03/29 05:53:54;;;;;;;15.70;5.60;;;;;;;9.30;41.35;100312.50;117331;1185;21859;-63
2022/03/29 05:56:23;;;;;;;13.50;5.60;;;;;;;9.39;41.45;100306.48;117290;1186;23443;-48
2022/03/29 05:58:51;;;;;;;18.70;5.90;;;;;;;9.47;41.37;100301.49;117296;1185;23574;-63
2022/03/29 06:01:21;;;;;;;15.70;5.80;;;;;;;9.53;41.26;100301.27;117298;1185;21858;-64
2022/03/29 06:03:50;;;;;;;24.30;6.40;;;;;;;9.60;41.40;100294.02;117216;1185;23448;-49
2022/03/29 06:06:19;;;;;;;16.70;6.50;;;;;;;9.67;41.25;100291.68;117503;1185;21909;-49
2022/03/29 06:08:48;;;;;;;15.00;5.80;;;;;;;9.74;41.18;100289.85;117288;1185;22802;-48
2022/03/29 06:11:16;;;;;;;13.30;5.70;;;;;;;9.80;41.24;100288.39;117351;1185;24175;-62
2022/03/29 06:13:46;;;;;;;18.80;6.20;;;;;;;9.87;41.06;100293.23;117331;1183;21893;-48
2022/03/29 06:16:15;;;;;;;14.30;6.40;;;;;;;9.94;41.11;100291.39;117289;1185;21860;-48
2022/03/29 06:18:45;;;;;;;19.40;7.30;;;;;;;10.08;41.31;100297.73;117396;1185;21853;-53
2022/03/29 06:21:16;;;;;;;17.30;6.80;;;;;;;10.20;41.45;100296.52;117294;1185;23456;-62
2022/03/29 06:23:44;;;;;;;22.10;7.50;;;;;;;10.30;41.30;100302.20;117363;1185;21870;-62
2022/03/29 06:26:18;;;;;;;22.20;6.50;;;;;;;10.40;41.20;100302.63;117287;1185;23577;-49
2022/03/29 06:28:48;;;;;;;15.60;6.60;;;;;;;10.49;41.15;100304.44;117186;1185;21899;-62
2022/03/29 06:31:16;;;;;;;17.20;6.90;;;;;;;10.56;41.00;100299.80;117333;1185;22777;-62
2022/03/29 06:33:44;;;;;;;16.50;6.20;;;;;;;10.64;40.91;100298.98;117361;1185;23470;-62
2022/03/29 06:36:14;;;;;;;14.20;6.10;;;;;;;10.71;40.94;100297.30;117169;1188;23718;-62
2022/03/29 06:38:44;;;;;;;16.40;6.60;;;;;;;10.80;41.13;100305.24;117284;1186;21861;-62
2022/03/29 06:41:13;;;;;;;23.30;7.70;;;;;;;10.88;40.80;100303.55;117196;1182;21850;-62
2022/03/29 06:43:42;;;;;;;16.80;6.80;;;;;;;10.95;40.76;100301.87;117350;1185;22928;-49
2022/03/29 06:46:11;;;;;;;15.20;6.30;;;;;;;11.01;40.75;100302.31;117343;1185;23446;-62
2022/03/29 06:48:44;;;;;;;14.50;6.00;;;;;;;11.11;40.71;100300.57;117351;1185;23368;-49
2022/03/29 06:51:13;;;;;;;19.70;7.70;;;;;;;11.19;40.72;100298.69;117313;1185;21852;-49
2022/03/29 06:53:42;;;;;;;20.20;6.90;;;;;;;11.24;40.68;100290.19;117354;1185;23474;-62
2022/03/29 06:56:11;;;;;;;17.70;6.40;;;;;;;11.30;40.84;100289.38;117351;1185;22040;-61
2022/03/29 06:58:40;;;;;;;18.20;7.00;;;;;;;11.39;40.81;100287.11;117208;1186;23468;-49
2022/03/29 07:01:09;;;;;;;20.00;7.10;;;;;;;11.45;40.69;100283.69;117283;1185;23468;-62
2022/03/29 07:03:39;;;;;;;16.90;6.20;;;;;;;11.48;40.57;100272.91;117313;1185;23448;-48
2022/03/29 07:06:08;;;;;;;17.30;6.20;;;;;;;11.50;40.51;100268.65;117372;1185;21887;-62
2022/03/29 07:11:16;;;;;;;19.30;7.70;;;;;;;11.55;40.57;100269.96;117386;1185;21853;-59
2022/03/29 07:11:47;;;;;;;20.90;7.50;;;;;;;11.64;40.46;100274.22;117213;1185;23544;-49
2022/03/29 07:14:15;;;;;;;26.00;8.80;;;;;;;11.69;40.67;100270.27;117155;1185;22617;-63
2022/03/29 07:16:46;;;;;;;19.20;7.90;;;;;;;11.72;40.53;100271.23;117173;1186;21611;-63
2022/03/29 07:19:15;;;;;;;21.10;6.50;;;;;;;11.79;40.56;100268.84;117281;1185;23551;-61
2022/03/29 07:21:53;;;;;;;20.90;7.30;;;;;;;11.88;40.43;100268.84;117263;1185;23062;-49
2022/03/29 07:24:22;;;;;;;23.90;6.40;;;;;;;11.96;40.44;100261.83;117310;1185;21864;-49
2022/03/29 07:26:51;;;;;;;22.40;6.80;;;;;;;12.04;40.26;100257.48;117322;1185;23551;-63
2022/03/29 07:29:20;;;;;;;18.30;6.40;;;;;;;12.12;40.39;100256.27;117328;1185;23550;-50
2022/03/29 07:31:49;;;;;;;18.60;7.00;;;;;;;12.20;40.26;100251.69;117408;1185;23471;-49
2022/03/29 07:34:18;;;;;;;18.50;7.40;;;;;;;12.31;40.50;100244.77;117294;1185;23640;-63
2022/03/29 07:36:49;;;;;;;17.10;6.60;;;;;;;12.47;40.55;100250.23;117195;1183;21865;-50
2022/03/29 07:39:18;;;;;;;17.60;7.30;;;;;;;12.64;40.56;100251.09;117302;1185;23554;-63
2022/03/29 07:41:49;;;;;;;15.50;6.30;;;;;;;12.84;40.71;100248.34;117254;1185;23475;-49
2022/03/29 07:44:18;;;;;;;15.10;6.50;;;;;;;13.03;40.70;100246.83;117366;1185;23688;-64
2022/03/29 07:46:46;;;;;;;16.60;6.90;;;;;;;13.23;40.86;100249.50;117426;1185;21893;-63
2022/03/29 07:49:15;;;;;;;20.70;6.60;;;;;;;13.44;40.76;100242.63;117458;1183;24616;-50
2022/03/29 07:52:04;;;;;;;15.90;7.20;;;;;;;13.74;40.75;100235.34;117310;1184;23550;-62
2022/03/29 07:54:33;;;;;;;17.90;7.20;;;;;;;14.06;40.72;100221.91;117319;1185;22177;-50
2022/03/29 07:57:04;;;;;;;18.60;7.00;;;;;;;14.39;40.82;100215.80;117272;1185;23572;-49
2022/03/29 07:59:33;;;;;;;16.30;5.90;;;;;;;14.73;40.66;100222.38;117278;1185;22774;-63
2022/03/29 08:02:01;;;;;;;14.20;6.80;;;;;;;14.97;40.53;100217.17;117378;1185;24143;-62
2022/03/29 08:04:30;;;;;;;13.20;6.90;;;;;;;15.18;40.39;100209.79;117363;1185;23548;-50
2022/03/29 08:06:59;;;;;;;18.30;6.40;;;;;;;15.29;40.09;100204.46;117333;1185;23551;-63
2022/03/29 08:09:29;;;;;;;12.80;6.00;;;;;;;15.39;39.91;100200.56;117323;1185;21840;-62
2022/03/29 08:12:03;;;;;;;17.50;6.60;;;;;;;15.52;39.92;100199.22;117280;1185;24241;-63
2022/03/29 08:14:32;;;;;;;15.80;6.70;;;;;;;15.69;39.77;100196.67;117224;1186;22147;-63
2022/03/29 08:17:00;;;;;;;23.60;7.00;;;;;;;15.85;39.70;100191.16;117343;1184;21932;-63
2022/03/29 08:19:42;;;;;;;14.90;6.60;;;;;;;16.02;39.72;100182.75;117169;1185;23554;-63
2022/03/29 08:22:30;;;;;;;17.70;7.20;;;;;;;16.39;39.54;100182.05;117118;1182;21852;-64
2022/03/29 08:25:00;;;;;;;23.10;6.20;;;;;;;16.62;39.40;100181.64;117235;1182;22435;-63
2022/03/29 08:27:29;;;;;;;14.20;6.30;;;;;;;16.79;39.17;100179.55;117257;1186;21893;-51
2022/03/29 08:29:59;;;;;;;20.20;6.10;;;;;;;16.89;38.90;100175.95;117178;1186;22619;-61
2022/03/29 08:32:27;;;;;;;15.10;6.20;;;;;;;16.97;38.88;100165.71;117085;1188;21855;-50
2022/03/29 08:34:56;;;;;;;15.50;5.80;;;;;;;17.03;38.75;100161.77;117337;1185;23566;-51
2022/03/29 08:37:26;;;;;;;13.50;5.40;;;;;;;17.06;38.58;100164.08;117142;1186;24175;-51
2022/03/29 08:39:54;;;;;;;16.30;5.80;;;;;;;17.07;38.62;100161.24;117704;1184;23542;-64
2022/03/29 08:42:23;;;;;;;13.60;5.30;;;;;;;17.05;38.71;100158.28;119306;1185;21843;-62
2022/03/29 08:44:52;;;;;;;20.00;5.90;;;;;;;17.11;38.57;100157.70;119171;1183;21840;-50
2022/03/29 08:47:23;;;;;;;16.20;6.00;;;;;;;17.16;38.41;100155.34;119353;1185;21773;-50
2022/03/29 08:49:51;;;;;;;17.10;6.10;;;;;;;17.28;38.40;100151.46;119054;1185;21789;-51
2022/03/29 08:52:20;;;;;;;12.90;6.00;;;;;;;17.44;38.26;100158.39;118971;1185;21893;-61
2022/03/29 08:54:49;;;;;;;16.00;6.80;;;;;;;17.54;38.20;100151.75;117392;1185;22307;-62
2022/03/29 08:57:17;;;;;;;17.30;6.50;;;;;;;17.69;38.22;100146.63;117287;1185;21852;-61
2022/03/29 08:59:46;;;;;;;17.00;5.80;;;;;;;17.87;38.11;100141.20;118319;1185;23551;-49
2022/03/29 09:02:16;;;;;;;14.00;6.30;;;;;;;18.05;38.09;100143.78;117275;1185;21912;-49
2022/03/29 09:05:08;;;;;;;16.80;7.90;;;;;;;18.21;37.92;100141.40;117168;1187;21861;-48
2022/03/29 09:07:57;;;;;;;15.40;6.20;;;;;;;18.35;37.89;100140.20;117163;1186;22919;-55
2022/03/29 09:10:44;;;;;;;14.20;6.40;;;;;;;18.49;37.67;100136.88;117026;1188;21941;-48
2022/03/29 09:13:26;;;;;;;14.90;7.00;;;;;;;18.55;37.59;100134.97;117134;1186;22287;-60
2022/03/29 09:16:01;;;;;;;15.00;7.30;;;;;;;18.58;37.38;100136.27;119330;1185;21795;-63
2022/03/29 09:18:31;;;;;;;15.50;6.70;;;;;;;18.56;37.18;100130.70;119287;1182;21842;-62
2022/03/29 09:21:12;;;;;;;12.10;5.70;;;;;;;18.50;37.12;100125.45;119312;1181;21776;-61
2022/03/29 09:23:42;;;;;;;18.50;7.70;;;;;;;18.51;37.00;100119.20;118162;1185;21891;-50
2022/03/29 09:26:26;;;;;;;13.90;7.00;;;;;;;18.54;36.97;100117.98;117252;1185;21863;-50
2022/03/29 09:28:57;;;;;;;16.40;8.30;;;;;;;18.63;37.04;100106.68;117354;1184;23631;-62
2022/03/29 09:31:27;;;;;;;17.00;7.00;;;;;;;18.73;36.93;100109.75;117280;1185;23380;-61
2022/03/29 09:34:16;;;;;;;15.50;7.10;;;;;;;18.81;36.93;100106.14;117358;1185;21852;-63
2022/03/29 09:36:50;;;;;;;13.80;6.70;;;;;;;18.91;36.91;100100.64;117339;1185;23439;-61
2022/03/29 09:39:47;;;;;;;15.20;6.60;;;;;;;19.06;36.65;100099.90;117340;1185;23448;-50
2022/03/29 09:42:19;;;;;;;13.40;7.10;;;;;;;19.18;36.58;100089.67;117289;1185;23980;-62
2022/03/29 09:44:50;;;;;;;13.00;7.30;;;;;;;19.35;36.68;100087.55;118627;1185;21861;-50
2022/03/29 09:47:22;;;;;;;14.60;6.80;;;;;;;19.61;36.72;100077.96;117317;1185;21894;-50
2022/03/29 09:49:56;;;;;;;15.00;7.70;;;;;;;19.90;36.56;100072.64;117367;1185;21874;-62
2022/03/29 09:52:26;;;;;;;13.90;6.80;;;;;;;20.12;36.56;100071.98;117345;1185;21894;-50
2022/03/29 09:55:19;;;;;;;12.00;6.80;;;;;;;20.30;36.43;100062.04;117349;1185;21909;-62
2022/03/29 09:57:51;;;;;;;12.50;6.60;;;;;;;20.54;36.42;100055.33;117312;1185;21852;-51
2022/03/29 10:00:42;;;;;;;13.20;6.50;;;;;;;20.73;36.21;100051.36;117322;1185;21858;-50
2022/03/29 10:03:12;;;;;;;17.60;7.40;;;;;;;20.90;36.15;100043.54;117360;1185;22944;-62
2022/03/29 10:05:42;;;;;;;13.30;6.50;;;;;;;21.15;36.09;100042.94;117064;1186;21854;-62
2022/03/29 10:11:27;;;;;;;15.70;6.70;;;;;;;21.61;35.77;100031.35;117469;1185;22117;-63
2022/03/29 10:13:59;;;;;;;14.40;6.80;;;;;;;21.69;35.46;100029.59;117166;1186;23471;-51
2022/03/29 10:16:28;;;;;;;18.00;7.50;;;;;;;21.68;35.26;100031.80;117318;1181;21852;-51
2022/03/29 10:18:58;;;;;;;16.30;6.80;;;;;;;21.64;35.04;100028.48;117340;1185;22622;-62
2022/03/29 10:21:27;;;;;;;12.20;6.90;;;;;;;21.54;34.91;100028.19;117247;1184;21948;-58
2022/03/29 10:23:55;;;;;;;12.50;6.80;;;;;;;21.58;34.60;100026.33;117204;1184;24152;-51
2022/03/29 10:26:25;;;;;;;18.20;7.10;;;;;;;21.66;34.67;100019.60;117316;1184;21960;-58
2022/03/29 10:28:53;;;;;;;14.70;7.50;;;;;;;21.78;34.71;100015.63;117120;1185;23915;-62
2022/03/29 10:31:26;;;;;;;18.10;7.10;;;;;;;21.84;34.55;100012.07;117242;1186;23471;-61
2022/03/29 10:34:11;;;;;;;11.90;5.90;;;;;;;21.83;34.32;100009.75;117304;1185;23646;-53
2022/03/29 10:36:59;;;;;;;11.70;6.30;;;;;;;21.81;34.19;100007.75;117384;1185;23618;-62
2022/03/29 10:39:46;;;;;;;12.80;6.80;;;;;;;21.74;33.94;100006.25;117367;1185;21859;-62
2022/03/29 10:42:32;;;;;;;12.80;6.50;;;;;;;21.72;33.56;100002.27;117328;1185;23459;-52
2022/03/29 10:45:18;;;;;;;16.80;8.50;;;;;;;21.63;33.29;99998.17;117299;1185;21853;-62
2022/03/29 10:48:06;;;;;;;13.10;8.10;;;;;;;21.60;33.57;99987.83;117334;1185;23448;-58
2022/03/29 10:50:54;;;;;;;14.80;6.70;;;;;;;21.71;33.60;99988.59;117305;1185;21846;-52
2022/03/29 10:53:32;;;;;;;14.40;7.20;;;;;;;21.87;33.59;99976.98;117316;1185;21863;-53
2022/03/29 10:56:16;;;;;;;13.80;6.90;;;;;;;22.10;33.48;99974.10;117304;1185;23442;-59
2022/03/29 10:59:01;;;;;;;13.80;6.70;;;;;;;22.26;33.49;99968.02;117262;1185;23688;-52
2022/03/29 11:01:30;;;;;;;14.00;7.50;;;;;;;22.34;32.90;99962.45;117346;1185;23704;-59
2022/03/29 11:04:04;;;;;;;9.80;6.40;;;;;;;22.34;33.11;99959.42;117364;1185;21840;-60
2022/03/29 11:06:36;;;;;;;12.20;7.50;;;;;;;22.28;32.58;99953.22;117289;1185;23480;-60
2022/03/29 11:09:07;;;;;;;12.60;7.10;;;;;;;22.26;32.63;99953.34;116947;1188;22928;-61
2022/03/29 11:11:44;;;;;;;10.00;6.40;;;;;;;22.27;32.61;99952.21;117314;1177;22924;-62
2022/03/29 11:14:30;;;;;;;19.40;7.70;;;;;;;22.33;32.70;99946.64;117282;1184;21843;-58
2022/03/29 11:17:09;;;;;;;13.70;6.70;;;;;;;22.34;32.31;99941.21;117257;1185;22839;-59
2022/03/29 11:19:47;;;;;;;11.00;6.50;;;;;;;22.32;31.80;99936.70;117337;1184;21850;-60
2022/03/29 11:22:31;;;;;;;14.60;7.00;;;;;;;22.28;32.00;99934.11;117299;1186;22825;-60
2022/03/29 11:25:02;;;;;;;16.50;7.00;;;;;;;22.31;31.85;99931.96;117275;1184;23628;-60
2022/03/29 11:27:36;;;;;;;12.20;6.90;;;;;;;22.29;31.42;99926.20;117193;1182;22925;-54
2022/03/29 11:30:10;;;;;;;18.00;7.40;;;;;;;22.17;31.24;99925.90;117271;1185;21849;-53
2022/03/29 11:32:42;;;;;;;15.40;6.80;;;;;;;22.07;31.30;99922.48;117469;1185;21913;-59
2022/03/29 11:35:12;;;;;;;15.90;7.90;;;;;;;21.97;31.23;99922.39;117312;1185;21935;-60
2022/03/29 11:37:43;;;;;;;13.80;7.60;;;;;;;21.91;30.92;99917.63;117433;1185;23576;-54
2022/03/29 11:40:17;;;;;;;15.70;7.80;;;;;;;21.89;30.84;99916.92;117270;1187;23538;-54
2022/03/29 11:42:49;;;;;;;17.70;7.90;;;;;;;21.85;31.16;99913.96;117358;1185;21845;-54
2022/03/29 11:45:20;;;;;;;19.10;10.20;;;;;;;21.85;31.17;99907.68;117277;1185;23471;-53
2022/03/29 11:47:59;;;;;;;16.80;9.10;;;;;;;21.92;31.14;99901.52;117343;1185;21860;-60